METAR Analyzer

一覧表示

Hello, Guest. (Login)

RJTT/HND  -  東京/羽田

観測日時
2022-09-30 06:00 (UTC) (43分前)
気温
27
露点
19
湿数
8
相対湿度
61.6%
QNH
1014.9hPa
推定現地気圧
1014.2hPa
推定海面気圧
1014.9hPa
体感温度
21.1
(無風時)
25.4
HI
28.2
気温前日比
+3
体感温度前日比
+4
HI前日比
+4.2
水平視程
>10000m
鉛直視程
データなし
雲底高度
No dense clouds
V/I
VMC (VFR)
RVR
No RVR data
卓越風
7kt from 80°
ガスト
No gust
降水
報告なし
その他の天気
報告なし
少しの(1/8) 積雲 @ 3000ft AGL

RJTT 300600Z 08007KT 9999 FEW030 27/19 Q1015 NOSIG RMK 1CU030 A2997

RJAA/NRT  -  東京/成田

観測日時
2022-09-30 06:00 (UTC) (43分前)
気温
26
露点
18
湿数
8
相対湿度
61.4%
QNH
1015.6hPa
推定現地気圧
1014.3hPa
推定海面気圧
1015.6hPa
体感温度
19.4
(無風時)
24.6
HI
26.3
気温前日比
+2
体感温度前日比
+1.3
HI前日比
+2.1
水平視程
>10000m
鉛直視程
データなし
雲底高度
No dense clouds
V/I
VMC (VFR)
RVR
No RVR data
卓越風
10kt from 80°
ガスト
No gust
降水
報告なし
その他の天気
報告なし
少しの(2/8) 積雲 @ 3500ft AGL

RJAA 300600Z 08010KT 9999 FEW035 26/18 Q1015 NOSIG RMK 2CU035 A2999

RJTF  -  調布

観測日時
2022-09-30 06:00 (UTC) (43分前)
気温
28
露点
15
湿数
13
相対湿度
45.1%
QNH
1015hPa
推定現地気圧
1010.0hPa
推定海面気圧
1014.8hPa
体感温度
21.8
(無風時)
24.9
HI
28
気温前日比
+3
体感温度前日比
+3.2
HI前日比
+2.9
水平視程
>10000m
鉛直視程
データなし
雲底高度
No dense clouds
V/I
VMC (VFR)
RVR
No RVR data
卓越風
5kt from 40° (360° ~ 120°)
ガスト
No gust
降水
報告なし
その他の天気
報告なし
報告なし

RJTF 300600Z 04005KT 360V120 CAVOK 28/15 Q1015

RJTI  -  東京ヘリポート

観測日時
2022-09-30 06:00 (UTC) (43分前)
気温
27
露点
16
湿数
11
相対湿度
51%
QNH
1015hPa
推定現地気圧
1014.4hPa
推定海面気圧
1015.0hPa
体感温度
21.1
(無風時)
24.7
HI
27.5
気温前日比
+4
体感温度前日比
+4.1
HI前日比
+4.3
水平視程
>10000m
鉛直視程
データなし
雲底高度
No dense clouds
V/I
VMC (VFR)
RVR
No RVR data
卓越風
5kt from 70° (10° ~ 130°)
ガスト
No gust
降水
報告なし
その他の天気
報告なし
少しの雲 @ 4000ft AGL

RJTI 300600Z 07005KT 010V130 9999 FEW040 27/16 Q1015

RJTY/OKO  -  横田基地

観測日時
2022-09-30 05:56 (UTC) (47分前)
気温
26.8
露点
13.8
湿数
13
相対湿度
44.8%
QNH
1016.6hPa
推定現地気圧
999.7hPa
推定海面気圧
1015.8hPa
体感温度
20.8
(無風時)
24.1
HI
27
気温前日比
+2.2
体感温度前日比
+2.6
HI前日比
+2.4
水平視程
>10SM
鉛直視程
データなし
雲底高度
No dense clouds
V/I
VMC (VFR)
RVR
No RVR data
卓越風
4kt from 70°
ガスト
No gust
降水
報告なし
その他の天気
報告なし
目立った雲なし

RJTY 300556Z 07004KT 10SM CLR 27/14 A3002 RMK SLPNO T02680138 10270 20230 55010

RJTC  -  立川飛行場

観測日時
2022-09-30 06:00 (UTC) (43分前)
気温
27
露点
14
湿数
13
相対湿度
44.8%
QNH
1015.6hPa
推定現地気圧
1004.2hPa
推定海面気圧
1015.1hPa
体感温度
21.4
(無風時)
24.2
HI
27.1
気温前日比
+2
体感温度前日比
+2.9
HI前日比
+1.9
水平視程
>10000m
鉛直視程
データなし
雲底高度
No dense clouds
V/I
VMC (VFR)
RVR
No RVR data
卓越風
3kt from VRB
ガスト
No gust
降水
報告なし
その他の天気
報告なし
少しの(2/8) 積雲 @ 3000ft AGL

RJTC 300600Z VRB03KT 9999 FEW030 27/14 Q1015 RMK 2CU030 A2999

RJAI  -  市ヶ谷駐屯地/地区/基地

観測日時
2022-09-30 06:00 (UTC) (43分前)
気温
27
露点
15
湿数
12
相対湿度
47.8%
QNH
1014.6hPa
推定現地気圧
1014.6hPa
推定海面気圧
1014.6hPa
体感温度
22.1
(無風時)
24.4
HI
27.3
気温前日比
+2
体感温度前日比
+2.5
HI前日比
+2.2
水平視程
>10000m
鉛直視程
データなし
雲底高度
No dense clouds
V/I
VMC (VFR)
RVR
No RVR data
卓越風
2kt from 60°
ガスト
No gust
降水
報告なし
その他の天気
報告なし
少しの(1/8) 積雲 @ 2000ft AGL / 散在する(3/8) 積雲 @ 4000ft AGL

RJAI 300600Z 06002KT 9999 FEW020 SCT040 27/15 Q1014 RMK 1CU020 3CU040 A2996

RJTK  -  木更津駐屯地

観測日時
2022-09-30 06:00 (UTC) (43分前)
気温
27
露点
16
湿数
11
相対湿度
51%
QNH
1015.2hPa
推定現地気圧
1014.8hPa
推定海面気圧
1015.1hPa
体感温度
20.6
(無風時)
24.7
HI
27.5
気温前日比
+3
体感温度前日比
+2.3
HI前日比
+3.5
水平視程
>10000m
鉛直視程
データなし
雲底高度
No dense clouds
V/I
VMC (VFR)
RVR
No RVR data
卓越風
7kt from 50°
ガスト
No gust
降水
報告なし
その他の天気
報告なし
少しの(1/8) 積雲 @ 3000ft AGL / 散在する(4/8) 積雲 @ 4000ft AGL

RJTK 300600Z 05007KT 9999 FEW030 SCT040 27/16 Q1015 RMK 1CU030 4CU040 A2998

RJTL  -  下総航空基地

観測日時
2022-09-30 06:00 (UTC) (43分前)
気温
27
露点
15
湿数
12
相対湿度
47.8%
QNH
1015.6hPa
推定現地気圧
1012.0hPa
推定海面気圧
1015.5hPa
体感温度
20.4
(無風時)
24.4
HI
27.3
気温前日比
+2
体感温度前日比
+1.8
HI前日比
+2.2
水平視程
>10000m
鉛直視程
データなし
雲底高度
No dense clouds
V/I
VMC (VFR)
RVR
No RVR data
卓越風
7kt from 90° (50° ~ 130°)
ガスト
No gust
降水
報告なし
その他の天気
報告なし
散在する(3/8) 積雲 @ 4000ft AGL

RJTL 300600Z 09007KT 050V130 9999 SCT040 27/15 Q1015 RMK 3CU040 A2999

RJTE  -  館山航空基地

観測日時
2022-09-30 06:00 (UTC) (43分前)
気温
27
露点
16
湿数
11
相対湿度
51%
QNH
1014.9hPa
推定現地気圧
1014.5hPa
推定海面気圧
1014.8hPa
体感温度
20.4
(無風時)
24.7
HI
27.5
気温前日比
+7
体感温度前日比
+6.5
HI前日比
+7
水平視程
>10000m
鉛直視程
データなし
雲底高度
No dense clouds
V/I
VMC (VFR)
RVR
No RVR data
卓越風
8kt from 50° (360° ~ 70°)
ガスト
No gust
降水
報告なし
その他の天気
報告なし
少しの(1/8) 積雲 @ 4000ft AGL

RJTE 300600Z 05008KT 360V070 9999 FEW040 27/16 Q1014 RMK 1CU040 A2997

RJTA/NJA  -  厚木海軍飛行場

観測日時
2022-09-30 06:00 (UTC) (43分前)
気温
28
露点
14
湿数
14
相対湿度
42.3%
QNH
1015.6hPa
推定現地気圧
1008.2hPa
推定海面気圧
1015.3hPa
体感温度
21
(無風時)
24.7
HI
27.8
気温前日比
+4
体感温度前日比
+3.7
HI前日比
+3.9
水平視程
>10000m
鉛直視程
データなし
雲底高度
No dense clouds
V/I
VMC (VFR)
RVR
No RVR data
卓越風
8kt from 70° (10° ~ 110°)
ガスト
No gust
降水
報告なし
その他の天気
報告なし
少しの(1/8) 積雲 @ 3000ft AGL / 散在する(3/8) 層積雲 @ 6000ft AGL

RJTA 300600Z 07008KT 010V110 9999 FEW030 SCT060 28/14 Q1015 RMK 1CU030 3SC060 A2999

RJTR  -  キャンプ座間

観測日時
2022-09-30 05:55 (UTC) (48分前)
気温
27.5
露点
14.1
湿数
13.4
相対湿度
43.8%
QNH
1015.9hPa
推定現地気圧
1002.5hPa
推定海面気圧
1015.3hPa
体感温度
24.5
(無風時)
24.5
HI
27.5
気温前日比
+4.9
体感温度前日比
+7.3
HI前日比
+5
水平視程
>10SM
鉛直視程
データなし
雲底高度
No dense clouds
V/I
VMC (VFR)
RVR
No RVR data
卓越風
静穏
ガスト
No gust
降水
報告なし
その他の天気
報告なし
少しの雲 @ 6000ft AGL

RJTR 300555Z 00000KT 10SM FEW060 28/14 A3000 RMK SLPNO T02750141 $

RJAH/IBR  -  茨城(百里基地)

観測日時
2022-09-30 06:00 (UTC) (43分前)
気温
26
露点
16
湿数
10
相対湿度
54.1%
QNH
1015hPa
推定現地気圧
1011.0hPa
推定海面気圧
1014.8hPa
体感温度
19.2
(無風時)
24.2
HI
26.1
気温前日比
+1
体感温度前日比
-0.7
HI前日比
+1.1
水平視程
>10000m
鉛直視程
データなし
雲底高度
No dense clouds
V/I
VMC (VFR)
RVR
No RVR data
卓越風
9kt from 70°
ガスト
No gust
降水
報告なし
その他の天気
報告なし
少しの雲 @ 3000ft AGL

RJAH 300600Z 07009KT 9999 FEW030 26/16 Q1015

RJAK  -  霞ヶ浦駐屯地

観測日時
2022-09-30 06:00 (UTC) (43分前)
気温
27
露点
16
湿数
11
相対湿度
51%
QNH
1015.9hPa
推定現地気圧
1012.8hPa
推定海面気圧
1015.8hPa
体感温度
20
(無風時)
24.7
HI
27.5
気温前日比
+1
体感温度前日比
-0.3
HI前日比
+1.3
水平視程
>10000m
鉛直視程
データなし
雲底高度
No dense clouds
V/I
VMC (VFR)
RVR
No RVR data
卓越風
10kt from 80°
ガスト
No gust
降水
報告なし
その他の天気
報告なし
少しの(1/8) 積雲 @ 2500ft AGL

RJAK 300600Z 08010KT 9999 FEW025 27/16 Q1016 RMK 1CU025 A3000

RJTU/QUT  -  北宇都宮駐屯地

観測日時
2022-09-30 06:00 (UTC) (43分前)
気温
26
露点
16
湿数
10
相対湿度
54.1%
QNH
1015.9hPa
推定現地気圧
1003.7hPa
推定海面気圧
1015.4hPa
体感温度
20.5
(無風時)
24.2
HI
26.1
気温前日比
±0
体感温度前日比
+1.5
HI前日比
+0.4
水平視程
>10000m
鉛直視程
データなし
雲底高度
No dense clouds
V/I
VMC (VFR)
RVR
No RVR data
卓越風
4kt from 140° (90° ~ 180°)
ガスト
No gust
降水
報告なし
その他の天気
報告なし
少しの(1/8) 積雲 @ 4000ft AGL

RJTU 300600Z 14004KT 090V180 9999 FEW040 26/16 Q1016 RMK 1CU040 A3000

RJTS  -  相馬原駐屯地

観測日時
2022-09-30 06:00 (UTC) (43分前)
気温
26
露点
11
湿数
15
相対湿度
39%
QNH
1016.3hPa
推定現地気圧
969.3hPa
推定海面気圧
1014.1hPa
体感温度
19.1
(無風時)
23.2
HI
25.7
気温前日比
+1
体感温度前日比
+0.6
HI前日比
+1.3
水平視程
>10000m
鉛直視程
データなし
雲底高度
No dense clouds
V/I
VMC (VFR)
RVR
No RVR data
卓越風
6kt from 130°
ガスト
No gust
降水
報告なし
その他の天気
報告なし
少しの(1/8) 積雲 @ 4000ft AGL

RJTS 300600Z 13006KT 9999 FEW040 26/11 Q1016 RMK 1CU040 A3001

RJTJ  -  入間飛行場

観測日時
2022-09-30 06:00 (UTC) (43分前)
気温
27
露点
13
湿数
14
相対湿度
42%
QNH
1015.6hPa
推定現地気圧
1004.8hPa
推定海面気圧
1015.1hPa
体感温度
21.2
(無風時)
24.1
HI
27
気温前日比
+1
体感温度前日比
+1.2
HI前日比
+1.2
水平視程
>10000m
鉛直視程
データなし
雲底高度
No dense clouds
V/I
VMC (VFR)
RVR
No RVR data
卓越風
3kt from VRB
ガスト
No gust
降水
報告なし
その他の天気
報告なし
少しの(2/8) 積雲 @ 4000ft AGL

RJTJ 300600Z VRB03KT 9999 FEW040 27/13 Q1015 RMK 2CU040 A2999

RJTO/OIM  -  大島

観測日時
2022-09-30 06:00 (UTC) (43分前)
気温
26
露点
19
湿数
7
相対湿度
65.4%
QNH
1014hPa
推定現地気圧
1009.4hPa
推定海面気圧
1013.8hPa
体感温度
19.1
(無風時)
24.9
HI
26.4
気温前日比
+5
体感温度前日比
+3.4
HI前日比
+4.8
水平視程
>10000m
鉛直視程
データなし
雲底高度
No dense clouds
V/I
VMC (VFR)
RVR
No RVR data
卓越風
13kt from 40°
ガスト
No gust
降水
報告なし
その他の天気
報告なし
少しの雲 @ 3000ft AGL

RJTO 300600Z 04013KT 9999 FEW030 26/19 Q1014

RJTH/HAC  -  八丈島

観測日時
2022-09-30 06:00 (UTC) (43分前)
気温
25
露点
21
湿数
4
相対湿度
78.5%
QNH
1013.2hPa
推定現地気圧
1002.2hPa
推定海面気圧
1012.8hPa
体感温度
19.3
(無風時)
24.9
HI
25.6
気温前日比
-2
体感温度前日比
-4.7
HI前日比
-4
水平視程
>10000m
鉛直視程
データなし
雲底高度
No dense clouds
V/I
VMC (VFR)
RVR
No RVR data
卓越風
8kt from 40°
ガスト
No gust
降水
報告なし
その他の天気
報告なし
少しの雲 @ 2300ft AGL / 散在する雲 @ 不明な高さ

RJTH 300600Z 04008KT 9999 FEW023 SCTXXX 25/21 Q1013 RMK A2992

RJAN  -  新島

観測日時
2022-09-30 06:00 (UTC) (43分前)
気温
26
露点
18
湿数
8
相対湿度
61.4%
QNH
1014.6hPa
推定現地気圧
1011.1hPa
推定海面気圧
1014.4hPa
体感温度
19.4
(無風時)
24.6
HI
26.3
気温前日比
+4
体感温度前日比
+4.4
HI前日比
+3.6
水平視程
>10000m
鉛直視程
データなし
雲底高度
No dense clouds
V/I
VMC (VFR)
RVR
No RVR data
卓越風
10kt from 80°
ガスト
No gust
降水
報告なし
その他の天気
報告なし
少しの雲 @ 2500ft AGL

RJAN 300600Z 08010KT 9999 FEW025 26/18 Q1014 RMK A2996

RJAZ  -  神津島

観測日時
2022-09-30 06:00 (UTC) (43分前)
気温
25
露点
18
湿数
7
相対湿度
65.1%
QNH
1014.6hPa
推定現地気圧
998.1hPa
推定海面気圧
1014.0hPa
体感温度
18
(無風時)
24.1
HI
25.3
気温前日比
+3
体感温度前日比
+3.6
HI前日比
+2.6
水平視程
>10000m
鉛直視程
データなし
雲底高度
No dense clouds
V/I
VMC (VFR)
RVR
No RVR data
卓越風
12kt from 50°
ガスト
23kt
降水
報告なし
その他の天気
報告なし
報告なし

RJAZ 300600Z 05012G23KT CAVOK 25/18 Q1014 RMK A2996

RJTQ/MYE  -  三宅島

観測日時
2022-09-30 06:00 (UTC) (43分前)
気温
26
露点
22
湿数
4
相対湿度
78.6%
QNH
1013.9hPa
推定現地気圧
1011.5hPa
推定海面気圧
1013.8hPa
体感温度
19.4
(無風時)
25.7
HI
26.7
気温前日比
+3
体感温度前日比
+3.4
HI前日比
+2.7
水平視程
>10000m
鉛直視程
データなし
雲底高度
3000ft AGL
V/I
VMC (VFR)
RVR
No RVR data
卓越風
16kt from 30°
ガスト
No gust
降水
報告なし
その他の天気
報告なし
散在する雲 @ 2000ft AGL / 隙間のある雲 @ 3000ft AGL / 隙間のある雲 @ 4000ft AGL

RJTQ 300600Z 03016KT 9999 SCT020 BKN030 BKN040 26/22 Q1013 RMK A2994

RJAO  -  父島ヘリポート

観測日時
2022-09-30 06:00 (UTC) (43分前)
気温
30
露点
28
湿数
2
相対湿度
89.1%
QNH
1014.9hPa
推定現地気圧
1014.9hPa
推定海面気圧
1014.9hPa
体感温度
26.8
(無風時)
29.8
HI
40.5
気温前日比
±0
体感温度前日比
+0.3
HI前日比
+4.3
水平視程
>10000m
鉛直視程
データなし
雲底高度
Unknown
V/I
判定不可
RVR
No RVR data
卓越風
6kt from 160°
ガスト
No gust
降水
報告なし
その他の天気
報告なし
少しの(1/8) 積雲 @ 2500ft AGL / 隙間のある雲 @ 不明な高さ

RJAO 300600Z 16006KT 9999 FEW025 BKN/// 30/28 Q1014 RMK 1CU025 A2997 SEA 0.2M

RJAW/IWO  -  硫黄島分屯基地

観測日時
2022-09-30 06:00 (UTC) (43分前)
気温
30
露点
24
湿数
6
相対湿度
70.3%
QNH
1014.6hPa
推定現地気圧
1000.5hPa
推定海面気圧
1013.9hPa
体感温度
25.5
(無風時)
28.3
HI
35.1
気温前日比
+2
体感温度前日比
+0.1
HI前日比
+2.4
水平視程
>10000m
鉛直視程
データなし
雲底高度
Unknown
V/I
判定不可
RVR
No RVR data
卓越風
6kt from 270° (230° ~ 310°)
ガスト
No gust
降水
報告なし
その他の天気
報告なし
散在する(3/8) 積雲 @ 1500ft AGL / 隙間のある雲 @ 不明な高さ

RJAW 300600Z 27006KT 230V310 9999 SCT015 BKN/// 30/24 Q1014 RMK 3CU015 A2996

RJAM/MUS  -  南鳥島航空基地

No data in
2022-09-30 04:43 ~ 2022-09-30 06:43 (UTC)
193.3msec